• LFSB

    METAR de LFSB (émis le 2020/01/29 07:00 UTC):
    LFSB 290700Z 18004KT 140V240 9999 BKN026 BKN063 BKN140 04/02 Q1013 NOSIG

    TAF de LFSB (émis le 2020/01/29 06:26 UTC):
    LFSB 290500Z 2906/3006 25010KT 9999 SCT030 TEMPO 2906/2916 27015G25KT SHRA FEW030TCU BECMG 3000/3003 VRB03KT
  • LFSX

    METAR de LFSX (émis le 2020/01/29 07:00 UTC):
    LFSX 290700Z AUTO 22009KT 9999 ////// 04/03 Q1013

    TAF de LFSX (émis le 2020/01/29 06:37 UTC):
    LFSX 290530Z 2906/3003 26007KT 9999 BKN025 TEMPO 2906/2916 22015G25KT 2500 SHRA BKN007 BKN020CB
  • LFSD

    METAR de LFSD (émis le 2020/01/29 07:00 UTC):
    LFSD 290700Z AUTO 19008KT 9999 ///TCU 05/04 Q1014

    TAF de LFSD (émis le 2015/06/01 00:11 UTC):
    LFSD 010600Z 0100/0124 CNL
  • LFGJ

    METAR de LFGJ (émis le 2020/01/29 07:00 UTC):
    LFGJ 290700Z AUTO 20009KT 9999 FEW031 SCT040 BKN047 06/05 Q1015 TEMPO SHRA SCT020TCU BKN030

    TAF COURT de LFGJ
    (émis le 2020/01/29 06:21 UTC):
    TAF TAF LFGJ 290500Z 2906/2915 21010KT 9999 SCT030 TEMPO 2906/2914 SHRA SCT020TCU BKN030
  • LFJL

    METAR de LFJL (émis le 2020/01/29 07:00 UTC):
    LFJL 290700Z AUTO 24011KT 9999 BKN015 BKN052 03/02 Q1010 TEMPO 24015G25KT 4000 SHRA BKN012 SCT020TCU

    TAF de LFJL (émis le 2020/01/29 06:21 UTC):
    LFJL 290500Z 2906/3006 24012KT 9999 SCT020 BKN030 TEMPO 2906/2914 24015G25KT 4000 SHRA BKN012 SCT020TCU PROB40 TEMPO 2914/2921 -SHRA FEW020TCU PROB40 TEMPO 3000/3006 BKN010 BECMG 3003/3006 17010KT
  • LFST

    METAR de LFST (émis le 2020/01/29 07:00 UTC):
    LFST 290700Z AUTO 20008KT 9999 OVC031 05/01 Q1011 TEMPO FEW030TCU

    TAF de LFST (émis le 2020/01/29 06:21 UTC):
    LFST 290500Z 2906/3006 23010KT 9999 FEW030 BKN040 TEMPO 2906/2915 -SHRA FEW030TCU